Time;durP1;ratioP1;P1;durP2;ratioP2;P2;SDS_P1;SDS_P2;PMS_P1;PMS_P2;Temp;Humidity;BMP_temperature;BMP_pressure;BME280_temperature;BME280_humidity;BME280_pressure;Samples;Min_cycle;Max_cycle;Signal;HPM_P1;HPM_P2
2024/04/12 00:00:57;;;;;;;;;;;;;;;20.96;33.54;98784.78;5388409;26;694;-75
2024/04/12 00:03:22;;;;;;;;;;;;;;;21.04;33.54;98784.31;5419659;26;730;-75
2024/04/12 00:05:48;;;;;;;;;;;;;;;21.06;33.52;98778.22;5359139;26;1044;-74
2024/04/12 00:08:14;;;;;;;;;;;;;;;20.91;33.80;98788.09;5388231;26;729;-75
2024/04/12 00:10:40;;;;;;;;;;;;;;;21.01;33.38;98790.00;5359196;26;1157;-75
2024/04/12 00:13:07;;;;;;;;;;;;;;;20.79;33.35;98775.28;5359651;26;833;-75
2024/04/12 00:15:33;;;;;;;;;;;;;;;20.50;33.59;98781.22;5359328;26;1835;-75
2024/04/12 00:17:59;;;;;;;;;;;;;;;20.34;33.85;98782.97;5358901;26;1234;-75
2024/04/12 00:20:28;;;;;;;;;;;;;;;20.58;33.25;98776.31;5388312;26;903;-76
2024/04/12 00:22:55;;;;;;;;;;;;;;;20.49;33.30;98785.28;5359494;26;857;-75
2024/04/12 00:25:22;;;;;;;;;;;;;;;20.59;33.08;98777.94;5353542;26;1058;-75
2024/04/12 00:27:47;;;;;;;;;;;;;;;20.60;32.86;98768.22;5384164;26;911;-75
2024/04/12 00:30:37;;;;;;;;;;;;;;;20.71;32.72;98774.56;5386624;26;788;-75
2024/04/12 00:33:00;;;;;;;;;;;;;;;20.76;32.59;98771.25;5360760;26;800;-75
2024/04/12 00:35:34;;;;;;;;;;;;;;;20.47;33.07;98761.50;5387061;26;1853;-75
2024/04/12 00:38:03;;;;;;;;;;;;;;;20.67;32.46;98762.47;5385638;26;813;-75
2024/04/12 00:40:32;;;;;;;;;;;;;;;20.15;33.42;98759.72;5356296;26;841;-75
2024/04/12 00:43:13;;;;;;;;;;;;;;;20.38;33.13;98761.16;5385044;26;875;-75
2024/04/12 00:45:41;;;;;;;;;;;;;;;20.57;32.44;98748.44;5385287;26;758;-76
2024/04/12 00:48:07;;;;;;;;;;;;;;;20.23;32.92;98754.81;5385083;26;745;-75
2024/04/12 00:50:36;;;;;;;;;;;;;;;20.57;32.46;98752.06;5385192;26;868;-75
2024/04/12 00:53:03;;;;;;;;;;;;;;;20.09;33.25;98750.09;5384959;26;907;-75
2024/04/12 00:55:32;;;;;;;;;;;;;;;20.58;32.88;98750.88;5386861;26;1853;-75
2024/04/12 00:57:59;;;;;;;;;;;;;;;20.72;33.15;98753.53;5356645;26;775;-75
2024/04/12 01:00:35;;;;;;;;;;;;;;;20.65;33.61;98747.97;5355935;26;1095;-75
2024/04/12 01:03:06;;;;;;;;;;;;;;;21.00;33.46;98758.06;5415084;26;848;-75
2024/04/12 01:05:35;;;;;;;;;;;;;;;20.92;33.39;98750.06;5385024;26;1223;-75
2024/04/12 01:08:01;;;;;;;;;;;;;;;21.21;32.94;98757.00;5385227;26;845;-75
2024/04/12 01:10:30;;;;;;;;;;;;;;;20.79;33.10;98744.19;5385259;26;832;-75
2024/04/12 01:13:02;;;;;;;;;;;;;;;21.10;32.81;98744.22;5386280;26;705;-75
2024/04/12 01:15:37;;;;;;;;;;;;;;;20.74;33.11;98744.66;5384880;26;1818;-74
2024/04/12 01:18:10;;;;;;;;;;;;;;;20.20;33.90;98745.13;5387179;26;840;-75
2024/04/12 01:20:36;;;;;;;;;;;;;;;20.76;33.08;98748.63;5357649;26;809;-74
2024/04/12 01:23:04;;;;;;;;;;;;;;;20.33;33.72;98741.81;5319342;26;1230;-75
2024/04/12 01:25:29;;;;;;;;;;;;;;;20.64;33.10;98739.91;5348085;26;1017;-76
2024/04/12 01:27:58;;;;;;;;;;;;;;;20.68;33.28;98741.47;5291322;26;871;-76
2024/04/12 01:30:24;;;;;;;;;;;;;;;20.75;32.72;98741.38;5291803;26;804;-75
2024/04/12 01:32:53;;;;;;;;;;;;;;;20.68;32.87;98735.81;5319620;26;778;-75
2024/04/12 01:35:21;;;;;;;;;;;;;;;21.03;32.19;98739.44;5348016;26;817;-75
2024/04/12 01:37:46;;;;;;;;;;;;;;;20.48;33.09;98741.28;5291579;26;1844;-75
2024/04/12 01:40:12;;;;;;;;;;;;;;;20.81;32.52;98734.03;5318514;26;876;-75
2024/04/12 01:42:42;;;;;;;;;;;;;;;20.55;33.32;98737.56;5290367;26;1261;-75
2024/04/12 01:45:14;;;;;;;;;;;;;;;20.89;33.29;98745.28;5291933;26;1107;-75
2024/04/12 01:47:48;;;;;;;;;;;;;;;20.67;34.02;98736.22;5291853;26;762;-75
2024/04/12 01:50:21;;;;;;;;;;;;;;;21.01;33.65;98736.22;5290476;26;844;-75
2024/04/12 01:52:57;;;;;;;;;;;;;;;21.14;33.25;98745.78;5290604;26;1106;-75
2024/04/12 01:55:24;;;;;;;;;;;;;;;20.27;34.81;98738.63;5318932;26;913;-75
2024/04/12 01:57:53;;;;;;;;;;;;;;;20.75;33.59;98741.38;5319474;26;697;-75
2024/04/12 02:00:20;;;;;;;;;;;;;;;20.96;32.91;98733.88;5301364;26;869;-75
2024/04/12 02:02:52;;;;;;;;;;;;;;;20.74;32.88;98734.13;5292596;26;1276;-76
2024/04/12 02:05:28;;;;;;;;;;;;;;;20.77;32.85;98738.94;5313687;27;809;-75
2024/04/12 02:07:55;;;;;;;;;;;;;;;20.55;33.02;98738.38;5259207;27;881;-75
2024/04/12 02:10:22;;;;;;;;;;;;;;;20.62;33.08;98737.47;5313053;27;733;-75
2024/04/12 02:12:53;;;;;;;;;;;;;;;20.79;32.64;98736.50;5284739;27;754;-75
2024/04/12 02:15:28;;;;;;;;;;;;;;;20.73;32.63;98738.19;5285767;27;901;-75
2024/04/12 02:17:57;;;;;;;;;;;;;;;20.60;32.86;98739.94;5286789;27;845;-75
2024/04/12 02:20:35;;;;;;;;;;;;;;;19.92;34.04;98740.56;5313122;27;1351;-75
2024/04/12 02:23:06;;;;;;;;;;;;;;;20.37;33.36;98748.25;5229904;27;1230;-75
2024/04/12 02:25:33;;;;;;;;;;;;;;;20.36;33.15;98740.97;5277687;26;1220;-75
2024/04/12 02:28:00;;;;;;;;;;;;;;;20.53;32.78;98742.84;5347639;26;721;-75
2024/04/12 02:30:25;;;;;;;;;;;;;;;19.97;33.51;98747.78;5347578;26;1146;-74
2024/04/12 02:32:51;;;;;;;;;;;;;;;20.49;32.87;98744.91;5347316;26;782;-75
2024/04/12 02:35:17;;;;;;;;;;;;;;;20.77;32.77;98749.44;5350988;26;805;-77
2024/04/12 02:37:43;;;;;;;;;;;;;;;20.78;33.27;98751.06;5385421;26;1853;-74
2024/04/12 02:40:15;;;;;;;;;;;;;;;20.90;33.14;98746.88;5383966;26;832;-75
2024/04/12 02:42:43;;;;;;;;;;;;;;;21.00;33.16;98751.59;5383652;26;1527;-75
2024/04/12 02:45:12;;;;;;;;;;;;;;;20.96;33.22;98745.19;5381914;26;850;-75
2024/04/12 02:47:47;;;;;;;;;;;;;;;20.66;33.67;98749.56;5250296;27;834;-75
2024/04/12 02:50:15;;;;;;;;;;;;;;;20.75;33.16;98746.25;5250481;27;818;-76
2024/04/12 02:52:43;;;;;;;;;;;;;;;20.81;32.74;98753.03;5278399;27;940;-75
2024/04/12 02:55:15;;;;;;;;;;;;;;;20.74;32.68;98756.75;5278563;27;774;-75
2024/04/12 02:57:41;;;;;;;;;;;;;;;20.96;32.07;98759.34;5250455;27;1842;-75
2024/04/12 03:00:21;;;;;;;;;;;;;;;20.28;33.46;98763.66;5250750;27;821;-75
2024/04/12 03:02:51;;;;;;;;;;;;;;;20.43;33.16;98757.88;5186382;27;1308;-75
2024/04/12 03:05:17;;;;;;;;;;;;;;;20.71;32.37;98768.91;5184239;27;898;-75
2024/04/12 03:07:45;;;;;;;;;;;;;;;20.66;32.19;98762.91;5145978;27;910;-75
2024/04/12 03:10:11;;;;;;;;;;;;;;;20.29;32.97;98759.59;5146207;27;792;-75
2024/04/12 03:12:36;;;;;;;;;;;;;;;20.43;32.83;98760.69;5145814;27;867;-75
2024/04/12 03:15:04;;;;;;;;;;;;;;;20.52;32.72;98766.66;5119254;27;826;-75
2024/04/12 03:17:29;;;;;;;;;;;;;;;20.37;32.80;98765.19;5146663;27;1858;-75
2024/04/12 03:19:55;;;;;;;;;;;;;;;20.48;32.50;98765.94;5211208;27;1169;-75
2024/04/12 03:22:21;;;;;;;;;;;;;;;20.66;32.12;98765.72;5173229;27;1057;-75
2024/04/12 03:24:46;;;;;;;;;;;;;;;20.55;32.37;98771.50;5172943;27;1107;-74
2024/04/12 03:27:13;;;;;;;;;;;;;;;20.71;32.79;98774.56;5177964;27;876;-75
2024/04/12 03:29:39;;;;;;;;;;;;;;;20.91;32.84;98779.59;5151065;27;1701;-74
2024/04/12 03:32:07;;;;;;;;;;;;;;;21.00;32.94;98779.91;5178110;27;1130;-75
2024/04/12 03:34:35;;;;;;;;;;;;;;;21.03;32.96;98779.03;5231310;27;852;-75
2024/04/12 03:37:23;;;;;;;;;;;;;;;20.95;33.03;98774.72;5244325;27;1819;-74
2024/04/12 03:39:47;;;;;;;;;;;;;;;20.81;33.11;98784.16;5307443;27;1160;-75
2024/04/12 03:42:18;;;;;;;;;;;;;;;20.66;33.20;98777.84;5283319;27;830;-75
2024/04/12 03:44:43;;;;;;;;;;;;;;;20.39;33.20;98779.72;5317214;26;876;-75
2024/04/12 03:47:09;;;;;;;;;;;;;;;20.73;32.62;98786.25;5277543;27;842;-75
2024/04/12 03:49:38;;;;;;;;;;;;;;;20.99;32.29;98786.78;5277680;27;850;-75
2024/04/12 03:52:04;;;;;;;;;;;;;;;20.68;32.72;98780.25;5277489;27;860;-75
2024/04/12 03:54:30;;;;;;;;;;;;;;;20.59;32.77;98789.22;5277971;27;954;-75
2024/04/12 03:56:56;;;;;;;;;;;;;;;20.10;33.60;98793.25;5249553;27;1822;-75
2024/04/12 03:59:28;;;;;;;;;;;;;;;20.39;33.02;98791.81;5310838;27;937;-75
2024/04/12 04:01:57;;;;;;;;;;;;;;;20.63;32.36;98790.00;5284322;27;1228;-75
2024/04/12 04:04:26;;;;;;;;;;;;;;;20.72;32.27;98793.13;5254085;27;1130;-75
2024/04/12 04:06:55;;;;;;;;;;;;;;;20.69;32.14;98791.16;5283794;27;948;-75
2024/04/12 04:09:26;;;;;;;;;;;;;;;20.30;32.92;98789.47;5283776;27;1093;-75
2024/04/12 04:11:55;;;;;;;;;;;;;;;20.20;33.98;98801.66;5254831;27;1221;-75
2024/04/12 04:14:26;;;;;;;;;;;;;;;20.74;33.56;98796.34;5283740;27;1289;-75
2024/04/12 04:16:55;;;;;;;;;;;;;;;20.78;33.22;98799.16;5284129;27;1863;-75
2024/04/12 04:19:30;;;;;;;;;;;;;;;21.00;32.92;98799.72;5380524;26;968;-75
2024/04/12 04:22:04;;;;;;;;;;;;;;;20.52;33.80;98800.59;5383578;26;1362;-75
2024/04/12 04:24:30;;;;;;;;;;;;;;;20.88;32.88;98803.06;5417507;26;1130;-75
2024/04/12 04:26:56;;;;;;;;;;;;;;;20.65;33.12;98793.19;5401726;26;1274;-75
2024/04/12 04:29:22;;;;;;;;;;;;;;;20.57;33.20;98802.16;5324602;26;1192;-75
2024/04/12 04:31:49;;;;;;;;;;;;;;;20.54;33.06;98810.28;5324186;26;963;-75
2024/04/12 04:34:15;;;;;;;;;;;;;;;20.50;32.94;98808.69;5382287;26;924;-75
2024/04/12 04:36:40;;;;;;;;;;;;;;;20.36;33.42;98814.44;5383425;26;1859;-75
2024/04/12 04:39:15;;;;;;;;;;;;;;;20.44;32.84;98816.00;5381984;26;890;-75
2024/04/12 04:41:44;;;;;;;;;;;;;;;20.84;32.07;98822.13;5325964;26;1058;-75
2024/04/12 04:44:10;;;;;;;;;;;;;;;20.89;32.07;98813.97;5380353;26;1040;-75
2024/04/12 04:46:41;;;;;;;;;;;;;;;20.42;32.90;98815.63;5380297;26;836;-75
2024/04/12 04:49:06;;;;;;;;;;;;;;;20.65;32.51;98813.00;5380530;26;828;-75
2024/04/12 04:51:35;;;;;;;;;;;;;;;20.40;33.10;98816.03;5380319;26;908;-75
2024/04/12 04:54:01;;;;;;;;;;;;;;;20.53;32.65;98814.34;5350827;26;1126;-75
2024/04/12 04:56:30;;;;;;;;;;;;;;;20.59;32.50;98816.72;5380335;26;1826;-75
2024/04/12 04:58:56;;;;;;;;;;;;;;;20.27;33.32;98823.41;5350555;26;1094;-75
2024/04/12 05:01:24;;;;;;;;;;;;;;;20.59;33.50;98820.34;5344890;26;1281;-75
2024/04/12 05:03:52;;;;;;;;;;;;;;;20.71;33.44;98825.47;5344114;26;1190;-75
2024/04/12 05:06:27;;;;;;;;;;;;;;;21.04;32.92;98825.94;5344455;26;1059;-75
2024/04/12 05:08:56;;;;;;;;;;;;;;;21.10;32.83;98829.09;5247994;27;1326;-74
2024/04/12 05:11:23;;;;;;;;;;;;;;;20.92;32.97;98815.16;5220413;27;1223;-75
2024/04/12 05:13:55;;;;;;;;;;;;;;;20.87;32.83;98822.06;5248411;27;996;-75
2024/04/12 05:16:25;;;;;;;;;;;;;;;20.68;33.08;98820.66;5283955;27;1830;-75
2024/04/12 05:18:53;;;;;;;;;;;;;;;20.38;33.24;98812.81;5279449;27;1144;-76
2024/04/12 05:21:20;;;;;;;;;;;;;;;20.78;32.68;98816.91;5251486;27;1091;-75
2024/04/12 05:23:47;;;;;;;;;;;;;;;20.36;33.21;98825.75;5251685;27;1090;-74
2024/04/12 05:26:13;;;;;;;;;;;;;;;20.63;32.92;98818.28;5279941;27;907;-75
2024/04/12 05:28:38;;;;;;;;;;;;;;;20.60;32.97;98815.47;5279585;27;974;-75
2024/04/12 05:31:11;;;;;;;;;;;;;;;20.66;32.63;98817.44;5279467;27;931;-75
2024/04/12 05:33:42;;;;;;;;;;;;;;;20.63;32.74;98826.78;5279384;27;916;-75
2024/04/12 05:36:10;;;;;;;;;;;;;;;20.62;32.55;98825.13;5279579;27;1826;-75
2024/04/12 05:38:36;;;;;;;;;;;;;;;20.65;32.70;98821.47;5251408;27;1005;-75
2024/04/12 05:41:04;;;;;;;;;;;;;;;20.38;32.88;98823.31;5350483;26;934;-75
2024/04/12 05:43:30;;;;;;;;;;;;;;;20.35;33.05;98815.66;5355022;26;912;-74
2024/04/12 05:45:57;;;;;;;;;;;;;;;20.62;33.09;98819.47;5353779;26;1097;-75
2024/04/12 05:48:23;;;;;;;;;;;;;;;20.52;33.50;98789.28;5383152;26;1107;-75
2024/04/12 05:50:49;;;;;;;;;;;;;;;20.93;33.17;98820.38;5385473;26;836;-75
2024/04/12 05:53:15;;;;;;;;;;;;;;;20.90;33.48;98820.44;5384684;26;958;-74
2024/04/12 05:55:52;;;;;;;;;;;;;;;21.08;32.90;98826.69;5384316;26;1826;-75
2024/04/12 05:58:18;;;;;;;;;;;;;;;20.75;33.11;98820.56;5385784;26;1007;-76
2024/04/12 06:00:47;;;;;;;;;;;;;;;20.71;33.13;98821.81;5384151;26;993;-75
2024/04/12 06:03:15;;;;;;;;;;;;;;;20.71;33.04;98828.28;5356167;26;949;-75
2024/04/12 06:05:41;;;;;;;;;;;;;;;20.56;33.19;98823.97;5384189;26;901;-75
2024/04/12 06:08:06;;;;;;;;;;;;;;;20.40;33.61;98821.69;5384054;26;1036;-75
2024/04/12 06:10:32;;;;;;;;;;;;;;;20.57;33.25;98831.25;5354751;26;1141;-75
2024/04/12 06:13:05;;;;;;;;;;;;;;;20.61;32.73;98831.22;5383864;26;912;-75
2024/04/12 06:15:36;;;;;;;;;;;;;;;20.52;33.19;98828.88;5384188;26;1821;-75
2024/04/12 06:18:08;;;;;;;;;;;;;;;20.55;33.31;98828.84;5384012;26;973;-75
2024/04/12 06:20:34;;;;;;;;;;;;;;;20.64;33.14;98825.53;5355273;26;1026;-75
2024/04/12 06:23:09;;;;;;;;;;;;;;;20.64;32.91;98830.41;5326802;26;1146;-75
2024/04/12 06:25:38;;;;;;;;;;;;;;;20.68;32.71;98834.00;5356883;26;1062;-74
2024/04/12 06:28:13;;;;;;;;;;;;;;;20.65;32.94;98832.00;5383463;26;982;-75
2024/04/12 06:30:38;;;;;;;;;;;;;;;20.51;32.91;98832.91;5355964;26;960;-75
2024/04/12 06:33:06;;;;;;;;;;;;;;;20.42;33.05;98827.72;5383818;26;1514;-75
2024/04/12 06:35:31;;;;;;;;;;;;;;;20.19;33.57;98828.31;5383729;26;1856;-76
2024/04/12 06:37:58;;;;;;;;;;;;;;;20.47;33.15;98826.53;5383895;26;1158;-75
2024/04/12 06:40:32;;;;;;;;;;;;;;;20.31;33.47;98835.47;5383771;26;1051;-76
2024/04/12 06:43:05;;;;;;;;;;;;;;;20.81;32.91;98829.41;5383717;26;1052;-75
2024/04/12 06:45:41;;;;;;;;;;;;;;;20.62;34.14;98827.16;5383776;26;933;-76
2024/04/12 06:48:10;;;;;;;;;;;;;;;20.73;34.22;98828.69;5354399;26;1800;-75
2024/04/12 06:50:36;;;;;;;;;;;;;;;21.06;33.97;98829.13;5383408;26;1085;-75
2024/04/12 06:53:08;;;;;;;;;;;;;;;20.91;34.19;98839.81;5383339;26;1056;-75
2024/04/12 06:55:46;;;;;;;;;;;;;;;20.89;33.95;98835.81;5383709;26;1822;-75
2024/04/12 06:58:12;;;;;;;;;;;;;;;21.12;33.47;98838.75;5385009;26;946;-75
2024/04/12 07:00:38;;;;;;;;;;;;;;;20.91;33.56;98827.69;5384972;26;883;-75
2024/04/12 07:03:07;;;;;;;;;;;;;;;20.70;33.88;98834.38;5353940;26;1083;-75
2024/04/12 07:05:33;;;;;;;;;;;;;;;20.94;33.35;98838.19;5384912;26;1072;-75
2024/04/12 07:08:01;;;;;;;;;;;;;;;20.72;33.59;98832.72;5383350;26;1049;-75
2024/04/12 07:10:27;;;;;;;;;;;;;;;20.65;33.69;98827.13;5354673;26;929;-75
2024/04/12 07:12:55;;;;;;;;;;;;;;;20.41;34.16;98836.63;5381448;26;1223;-75
2024/04/12 07:15:21;;;;;;;;;;;;;;;20.27;34.43;98832.69;5381672;26;1007;-75
2024/04/12 07:17:47;;;;;;;;;;;;;;;20.72;33.67;98838.38;5323698;26;1834;-75
2024/04/12 07:20:27;;;;;;;;;;;;;;;20.48;33.99;98822.47;5352157;26;1015;-75
2024/04/12 07:22:53;;;;;;;;;;;;;;;20.72;33.57;98844.03;5327533;26;838;-75
2024/04/12 07:25:23;;;;;;;;;;;;;;;20.49;33.78;98821.25;5352680;26;1008;-75
2024/04/12 07:27:49;;;;;;;;;;;;;;;20.49;33.82;98835.38;5381599;26;890;-74
2024/04/12 07:30:15;;;;;;;;;;;;;;;20.41;34.07;98839.44;5352391;26;975;-75
2024/04/12 07:32:42;;;;;;;;;;;;;;;20.36;34.14;98845.53;5381634;26;938;-75
2024/04/12 07:35:30;;;;;;;;;;;;;;;20.43;34.00;98834.19;5381638;26;1137;-75
2024/04/12 07:37:54;;;;;;;;;;;;;;;20.70;33.29;98835.16;5380754;26;1825;-75
2024/04/12 07:40:19;;;;;;;;;;;;;;;20.67;33.42;98846.50;5351360;26;988;-74
2024/04/12 07:42:46;;;;;;;;;;;;;;;20.63;33.51;98845.75;5381767;26;944;-75
2024/04/12 07:45:16;;;;;;;;;;;;;;;20.46;33.85;98841.81;5351865;26;1257;-75
2024/04/12 07:47:52;;;;;;;;;;;;;;;20.48;33.79;98831.75;5317763;26;974;-75
2024/04/12 07:50:21;;;;;;;;;;;;;;;20.23;34.31;98846.03;5291475;26;1464;-74
2024/04/12 07:52:50;;;;;;;;;;;;;;;20.80;33.07;98845.56;5262076;26;906;-75
2024/04/12 07:55:23;;;;;;;;;;;;;;;20.64;33.19;98834.03;5318491;26;1166;-75
2024/04/12 07:57:55;;;;;;;;;;;;;;;20.77;33.08;98843.56;5346076;26;1833;-75
2024/04/12 08:00:35;;;;;;;;;;;;;;;19.91;34.71;98834.19;5345816;26;950;-75
2024/04/12 08:03:06;;;;;;;;;;;;;;;20.60;33.44;98841.72;5291473;26;1151;-75
2024/04/12 08:05:42;;;;;;;;;;;;;;;19.96;34.69;98843.03;5316930;26;972;-75
2024/04/12 08:08:14;;;;;;;;;;;;;;;20.06;34.19;98847.00;5290840;26;916;-75
2024/04/12 08:10:41;;;;;;;;;;;;;;;20.68;33.31;98837.63;5318831;26;1197;-75
2024/04/12 08:13:10;;;;;;;;;;;;;;;20.32;33.61;98839.13;5345749;26;861;-75
2024/04/12 08:15:42;;;;;;;;;;;;;;;20.58;33.43;98837.72;5309497;27;1835;-75
2024/04/12 08:18:08;;;;;;;;;;;;;;;20.50;33.61;98836.97;5286625;27;874;-74
2024/04/12 08:20:39;;;;;;;;;;;;;;;20.58;33.32;98832.88;5311334;27;752;-75
2024/04/12 08:23:07;;;;;;;;;;;;;;;20.24;34.02;98836.34;5311295;27;841;-75
2024/04/12 08:25:39;;;;;;;;;;;;;;;20.45;33.96;98823.25;5311367;27;996;-74
2024/04/12 08:28:06;;;;;;;;;;;;;;;20.42;33.73;98830.56;5311339;27;1042;-75
2024/04/12 08:30:33;;;;;;;;;;;;;;;20.75;33.37;98831.88;5282294;27;839;-75
2024/04/12 08:33:02;;;;;;;;;;;;;;;20.65;33.28;98821.47;5282759;27;1420;-75
2024/04/12 08:35:29;;;;;;;;;;;;;;;20.53;33.84;98836.16;5263767;27;910;-75
2024/04/12 08:37:54;;;;;;;;;;;;;;;20.33;34.27;98835.09;5221236;27;1862;-74
2024/04/12 08:40:21;;;;;;;;;;;;;;;20.43;34.21;98828.53;5248357;27;832;-75
2024/04/12 08:42:47;;;;;;;;;;;;;;;20.34;34.47;98833.84;5249186;27;881;-74
2024/04/12 08:45:13;;;;;;;;;;;;;;;20.20;34.68;98829.91;5221158;27;1203;-75
2024/04/12 08:47:57;;;;;;;;;;;;;;;20.50;34.02;98825.66;5248690;27;953;-75
2024/04/12 08:50:24;;;;;;;;;;;;;;;20.67;33.68;98832.38;5292469;26;2018;-75
2024/04/12 08:52:52;;;;;;;;;;;;;;;20.88;33.34;98837.00;5324610;26;1291;-74
2024/04/12 08:55:20;;;;;;;;;;;;;;;20.35;34.28;98833.44;5367383;26;1336;-74
2024/04/12 08:57:47;;;;;;;;;;;;;;;20.51;34.00;98827.25;5346092;26;1843;-75
2024/04/12 09:00:17;;;;;;;;;;;;;;;20.50;34.01;98822.84;5384001;26;964;-75
2024/04/12 09:02:48;;;;;;;;;;;;;;;20.35;34.30;98812.84;5246484;27;1202;-75
2024/04/12 09:05:14;;;;;;;;;;;;;;;20.23;34.66;98817.00;5246419;27;954;-74
2024/04/12 09:07:42;;;;;;;;;;;;;;;20.44;34.32;98821.66;5285801;27;969;-74
2024/04/12 09:10:08;;;;;;;;;;;;;;;20.68;33.79;98820.66;5314078;26;944;-75
2024/04/12 09:12:36;;;;;;;;;;;;;;;20.24;34.75;98825.03;5285719;26;938;-74
2024/04/12 09:15:03;;;;;;;;;;;;;;;20.25;34.63;98829.47;5314005;26;990;-74
2024/04/12 09:17:29;;;;;;;;;;;;;;;20.46;34.27;98822.84;5313806;26;1818;-74
2024/04/12 09:19:57;;;;;;;;;;;;;;;20.43;34.28;98825.72;5313898;26;918;-74
2024/04/12 09:22:32;;;;;;;;;;;;;;;20.51;34.30;98832.91;5257871;27;1153;-75
2024/04/12 09:25:00;;;;;;;;;;;;;;;20.67;33.86;98830.34;5285341;26;1035;-75
2024/04/12 09:27:34;;;;;;;;;;;;;;;20.44;34.31;98830.94;5257856;27;1245;-74
2024/04/12 09:32:50;;;;;;;;;;;;;;;20.48;34.21;98828.13;5323318;26;1377;-74
2024/04/12 09:32:51;;;;;;;;;;;;;;;20.27;34.77;98829.88;5268042;26;1251;-75
2024/04/12 09:35:16;;;;;;;;;;;;;;;20.58;34.23;98813.09;5355159;26;836;-74
2024/04/12 09:37:54;;;;;;;;;;;;;;;20.56;34.09;98829.63;5296183;26;1914;-75
2024/04/12 09:40:26;;;;;;;;;;;;;;;20.29;34.87;98838.72;5351658;26;1240;-75
2024/04/12 09:45:27;;;;;;;;;;;;;;;20.58;34.05;98827.22;5389724;26;916;-74
2024/04/12 10:37:29;;;;;;;;;;;;;;;20.65;33.89;98829.16;5394068;26;1841;-76
2024/04/12 10:39:58;;;;;;;;;;;;;;;20.64;33.91;98834.03;5419334;26;874;-75
2024/04/12 10:42:25;;;;;;;;;;;;;;;20.51;33.96;98830.09;5419293;26;1027;-74
2024/04/12 10:44:59;;;;;;;;;;;;;;;20.53;34.08;98836.16;5390243;26;945;-73
2024/04/12 10:47:27;;;;;;;;;;;;;;;20.63;33.78;98829.59;5419425;26;869;-74
2024/04/12 10:49:56;;;;;;;;;;;;;;;20.65;33.78;98838.44;5389913;26;945;-74
2024/04/12 10:52:28;;;;;;;;;;;;;;;20.42;34.21;98830.56;5419114;26;890;-74
2024/04/12 10:54:57;;;;;;;;;;;;;;;20.59;33.88;98828.81;5388210;26;959;-74
2024/04/12 10:57:29;;;;;;;;;;;;;;;20.55;33.96;98834.50;5387870;26;1853;-74
2024/04/12 10:59:55;;;;;;;;;;;;;;;20.05;35.03;98836.88;5417636;26;1144;-75
2024/04/12 11:02:22;;;;;;;;;;;;;;;20.22;34.64;98838.00;5358934;26;1113;-74
2024/04/12 11:05:24;;;;;;;;;;;;;;;20.53;33.96;98833.31;5387645;26;1098;-74
2024/04/12 11:07:54;;;;;;;;;;;;;;;20.57;33.94;98834.06;5338333;26;1241;-74
2024/04/12 11:10:38;;;;;;;;;;;;;;;20.34;34.22;98833.84;5381037;26;1282;-74
2024/04/12 11:13:06;;;;;;;;;;;;;;;20.10;34.83;98832.81;5353852;26;1392;-74
2024/04/12 11:31:43;;;;;;;;;;;;;;;20.56;34.00;98807.03;5287913;27;985;-74
2024/04/12 11:34:09;;;;;;;;;;;;;;;20.43;34.04;98794.63;5317562;26;1051;-74
2024/04/12 11:36:39;;;;;;;;;;;;;;;20.43;34.11;98803.09;5317911;26;1861;-73
2024/04/12 11:39:17;;;;;;;;;;;;;;;20.33;34.19;98801.16;5317695;26;1229;-74
2024/04/12 11:41:45;;;;;;;;;;;;;;;20.46;34.26;98793.75;5343897;26;1179;-74
2024/04/12 11:44:17;;;;;;;;;;;;;;;20.32;34.61;98791.09;5317448;26;916;-75
2024/04/12 11:46:45;;;;;;;;;;;;;;;20.55;34.06;98786.44;5290863;26;980;-74
2024/04/12 11:49:11;;;;;;;;;;;;;;;20.31;34.23;98784.59;5317689;26;968;-75
2024/04/12 11:51:37;;;;;;;;;;;;;;;20.26;34.60;98777.41;5317763;26;1086;-74
2024/04/12 11:54:05;;;;;;;;;;;;;;;20.54;33.93;98789.69;5317572;26;977;-74
2024/04/12 11:56:31;;;;;;;;;;;;;;;20.30;34.31;98786.63;5317242;26;1829;-75
2024/04/12 11:58:58;;;;;;;;;;;;;;;20.43;34.01;98783.31;5289529;26;949;-74
2024/04/12 12:01:27;;;;;;;;;;;;;;;20.51;33.91;98768.69;5322868;26;865;-74
2024/04/12 12:03:54;;;;;;;;;;;;;;;20.27;34.49;98773.34;5349208;26;1253;-74
2024/04/12 12:06:22;;;;;;;;;;;;;;;20.46;34.06;98771.16;5397547;26;1564;-75
2024/04/12 12:08:57;;;;;;;;;;;;;;;20.17;34.62;98774.25;5412924;26;1490;-74
2024/04/12 12:11:27;;;;;;;;;;;;;;;20.09;34.84;98772.69;5390327;26;1098;-76
2024/04/12 12:13:53;;;;;;;;;;;;;;;20.06;34.85;98765.06;5389002;26;983;-74
2024/04/12 12:16:19;;;;;;;;;;;;;;;20.07;34.91;98766.66;5417603;26;1822;-74
2024/04/12 12:18:45;;;;;;;;;;;;;;;20.20;34.29;98766.94;5418201;26;969;-74
2024/04/12 12:21:11;;;;;;;;;;;;;;;20.16;34.69;98764.16;5417265;26;914;-74
2024/04/12 12:23:37;;;;;;;;;;;;;;;20.43;33.94;98769.16;5417784;26;1399;-75
2024/04/12 12:26:02;;;;;;;;;;;;;;;20.02;34.95;98761.47;5457662;26;895;-74
2024/04/12 12:28:28;;;;;;;;;;;;;;;20.33;34.27;98765.22;5427280;26;1000;-76
2024/04/12 12:30:57;;;;;;;;;;;;;;;20.66;33.87;98760.88;5459078;26;874;-75
2024/04/12 12:33:23;;;;;;;;;;;;;;;20.60;33.76;98756.91;5398120;26;899;-75
2024/04/12 12:35:50;;;;;;;;;;;;;;;20.78;33.33;98763.19;5426965;26;1853;-75
2024/04/12 12:38:16;;;;;;;;;;;;;;;20.47;33.99;98764.31;5348645;26;1091;-75
2024/04/12 12:40:41;;;;;;;;;;;;;;;20.63;33.76;98767.38;5349069;26;1012;-75
2024/04/12 12:43:10;;;;;;;;;;;;;;;20.04;34.76;98764.66;5349092;26;1151;-75
2024/04/12 12:45:36;;;;;;;;;;;;;;;20.53;33.68;98762.66;5349250;26;980;-75
2024/04/12 12:48:02;;;;;;;;;;;;;;;20.44;34.12;98763.09;5291483;26;1198;-74
2024/04/12 12:50:29;;;;;;;;;;;;;;;20.65;33.68;98753.63;5314054;27;977;-75
2024/04/12 12:52:55;;;;;;;;;;;;;;;20.51;33.73;98743.25;5314175;27;963;-75
2024/04/12 12:55:23;;;;;;;;;;;;;;;20.69;33.55;98743.06;5314278;27;999;-75
2024/04/12 12:57:49;;;;;;;;;;;;;;;20.68;33.68;98746.34;5314140;27;1850;-75
2024/04/12 13:00:22;;;;;;;;;;;;;;;20.15;34.55;98737.13;5314181;27;1219;-75
2024/04/12 13:02:51;;;;;;;;;;;;;;;20.22;34.52;98739.88;5285543;27;934;-75
2024/04/12 13:05:19;;;;;;;;;;;;;;;20.21;34.52;98738.28;5285615;27;971;-75
2024/04/12 13:07:48;;;;;;;;;;;;;;;20.43;33.90;98735.25;5313958;27;924;-75
2024/04/12 13:10:19;;;;;;;;;;;;;;;20.40;34.10;98727.59;5344773;26;996;-75
2024/04/12 13:12:51;;;;;;;;;;;;;;;20.37;34.09;98726.44;5312336;27;1696;-74
2024/04/12 13:15:19;;;;;;;;;;;;;;;20.35;34.19;98728.06;5258203;27;1260;-75
2024/04/12 13:17:45;;;;;;;;;;;;;;;20.64;33.49;98729.41;5286003;27;1853;-75
2024/04/12 13:20:18;;;;;;;;;;;;;;;20.62;33.59;98731.81;5313792;27;912;-75
2024/04/12 13:22:44;;;;;;;;;;;;;;;20.52;34.03;98724.25;5418903;26;944;-75
2024/04/12 13:25:13;;;;;;;;;;;;;;;20.32;34.23;98724.06;5418701;26;1204;-75
2024/04/12 13:27:40;;;;;;;;;;;;;;;20.36;34.26;98718.34;5389945;26;932;-74
2024/04/12 13:30:10;;;;;;;;;;;;;;;20.51;34.00;98725.50;5389641;26;1012;-75
2024/04/12 13:32:39;;;;;;;;;;;;;;;20.72;33.45;98724.44;5389948;26;919;-75
2024/04/12 13:35:06;;;;;;;;;;;;;;;20.38;34.20;98715.91;5390318;26;1042;-75
2024/04/12 13:37:33;;;;;;;;;;;;;;;20.76;33.23;98720.34;5417030;26;1826;-75
2024/04/12 13:39:58;;;;;;;;;;;;;;;20.54;33.64;98719.81;5389248;26;1000;-75
2024/04/12 13:42:25;;;;;;;;;;;;;;;20.72;33.18;98713.94;5418565;26;1037;-75
2024/04/12 13:53:09;;;;;;;;;;;;;;;20.41;33.82;98720.72;5457582;26;903;-75
2024/04/12 13:55:35;;;;;;;;;;;;;;;20.61;33.42;98724.56;5457362;26;959;-75
2024/04/12 13:58:01;;;;;;;;;;;;;;;20.79;33.05;98716.69;5426052;26;1825;-75
2024/04/12 14:00:31;;;;;;;;;;;;;;;20.49;33.60;98716.63;5457250;26;859;-75
2024/04/12 14:02:58;;;;;;;;;;;;;;;20.87;32.91;98722.25;5425897;26;906;-75
2024/04/12 14:05:33;;;;;;;;;;;;;;;20.41;33.63;98715.06;5457457;26;990;-75
2024/04/12 14:08:07;;;;;;;;;;;;;;;20.42;33.72;98722.34;5457311;26;965;-75
2024/04/12 14:10:34;;;;;;;;;;;;;;;20.48;33.50;98715.03;5425537;26;878;-75
2024/04/12 14:12:59;;;;;;;;;;;;;;;20.05;34.07;98712.59;5425718;26;996;-75
2024/04/12 14:15:25;;;;;;;;;;;;;;;20.00;34.26;98718.69;5457121;26;884;-75
2024/04/12 14:17:51;;;;;;;;;;;;;;;20.68;33.04;98713.19;5457056;26;1832;-75
2024/04/12 14:20:20;;;;;;;;;;;;;;;20.08;33.85;98714.59;5457300;26;1035;-75
2024/04/12 14:22:46;;;;;;;;;;;;;;;20.38;33.45;98713.09;5347276;26;957;-74
2024/04/12 14:25:11;;;;;;;;;;;;;;;20.67;33.28;98716.44;5347772;26;1211;-75
2024/04/12 14:27:37;;;;;;;;;;;;;;;20.30;33.62;98715.19;5347509;26;977;-75